Time;durP1;ratioP1;P1;durP2;ratioP2;P2;SDS_P1;SDS_P2;PMS_P1;PMS_P2;Temp;Humidity;BMP_temperature;BMP_pressure;BME280_temperature;BME280_humidity;BME280_pressure;Samples;Min_cycle;Max_cycle;Signal;HPM_P1;HPM_P2
2022/05/16 00:00:35;;;;;;;4.97;1.58;;;;;;;;;;2132008;27;20053;-58
2022/05/16 00:01:37;;;;;;;3.60;1.33;;;;;;;;;;2131724;27;20134;-59
2022/05/16 00:02:39;;;;;;;3.97;1.65;;;;;;;;;;2131628;27;20487;-58
2022/05/16 00:03:40;;;;;;;4.35;1.45;;;;;;;;;;2131585;27;20402;-58
2022/05/16 00:04:42;;;;;;;3.05;1.70;;;;;;;;;;2131663;27;20042;-58
2022/05/16 00:05:43;;;;;;;;;;;;;;;;;;2132024;27;20043;-58
2022/05/16 00:06:44;;;;;;;3.50;1.60;;;;;;;;;;2131799;27;20010;-58
2022/05/16 00:07:45;;;;;;;2.57;1.60;;;;;;;;;;2131791;27;20380;-58
2022/05/16 00:08:46;;;;;;;5.07;1.98;;;;;;;;;;2131589;27;20463;-58
2022/05/16 00:09:48;;;;;;;4.72;1.60;;;;;;;;;;2131669;27;20050;-58
2022/05/16 00:10:49;;;;;;;3.65;1.60;;;;;;;;;;2131648;27;20145;-58
2022/05/16 00:11:50;;;;;;;3.08;1.50;;;;;;;;;;2131584;27;20115;-58
2022/05/16 00:12:51;;;;;;;2.33;1.48;;;;;;;;;;2131771;27;20175;-58
2022/05/16 00:13:53;;;;;;;2.78;1.50;;;;;;;;;;2131522;27;20054;-57
2022/05/16 00:14:54;;;;;;;2.95;1.50;;;;;;;;;;2131612;27;20441;-58
2022/05/16 00:15:55;;;;;;;4.88;1.67;;;;;;;;;;2131643;27;20047;-58
2022/05/16 00:16:56;;;;;;;;;;;;;;;;;;2131900;27;20046;-58
2022/05/16 00:17:58;;;;;;;2.85;1.77;;;;;;;;;;2131666;27;19919;-58
2022/05/16 00:18:59;;;;;;;;;;;;;;;;;;2131783;27;20098;-57
2022/05/16 00:20:00;;;;;;;3.70;1.45;;;;;;;;;;2131577;27;20388;-58
2022/05/16 00:21:01;;;;;;;4.75;2.03;;;;;;;;;;2131578;27;20039;-58
2022/05/16 00:22:03;;;;;;;5.07;1.57;;;;;;;;;;2131564;27;20047;-58
2022/05/16 00:23:04;;;;;;;4.25;1.42;;;;;;;;;;2131534;27;20483;-58
2022/05/16 00:24:06;;;;;;;2.70;1.40;;;;;;;;;;2131651;27;20091;-58
2022/05/16 00:25:09;;;;;;;2.10;1.60;;;;;;;;;;2131613;27;20121;-58
2022/05/16 00:26:10;;;;;;;2.90;1.65;;;;;;;;;;2131629;27;20118;-58
2022/05/16 00:27:11;;;;;;;5.60;1.48;;;;;;;;;;2131811;27;20046;-48
2022/05/16 00:28:12;;;;;;;3.53;1.80;;;;;;;;;;2131599;27;20199;-47
2022/05/16 00:29:13;;;;;;;3.47;1.60;;;;;;;;;;2131415;27;20292;-47
2022/05/16 00:30:16;;;;;;;3.97;1.33;;;;;;;;;;2131460;27;20406;-47
2022/05/16 00:31:17;;;;;;;4.75;1.40;;;;;;;;;;2131491;27;20056;-47
2022/05/16 00:32:18;;;;;;;3.03;1.30;;;;;;;;;;2131431;27;20053;-47
2022/05/16 00:33:20;;;;;;;3.85;2.00;;;;;;;;;;2131602;27;20287;-49
2022/05/16 00:34:21;;;;;;;3.45;1.52;;;;;;;;;;2131345;27;20488;-47
2022/05/16 00:35:23;;;;;;;3.28;1.40;;;;;;;;;;2131552;27;20046;-47
2022/05/16 00:36:24;;;;;;;1.98;1.45;;;;;;;;;;2131328;27;20480;-47
2022/05/16 00:37:25;;;;;;;3.97;1.58;;;;;;;;;;2131348;27;20133;-47
2022/05/16 00:38:26;;;;;;;2.30;1.50;;;;;;;;;;2131595;27;20152;-47
2022/05/16 00:39:27;;;;;;;3.30;1.52;;;;;;;;;;2131297;27;20102;-46
2022/05/16 00:40:28;;;;;;;3.20;1.33;;;;;;;;;;2131508;27;20540;-47
2022/05/16 00:41:29;;;;;;;2.42;1.48;;;;;;;;;;2131440;27;20130;-47
2022/05/16 00:42:30;;;;;;;3.53;1.70;;;;;;;;;;2131543;27;20050;-46
2022/05/16 00:43:43;;;;;;;2.65;1.40;;;;;;;;;;2131429;27;20057;-46
2022/05/16 00:44:44;;;;;;;4.45;1.77;;;;;;;;;;2131411;27;20480;-46
2022/05/16 00:45:45;;;;;;;2.92;1.42;;;;;;;;;;2131437;27;20147;-46
2022/05/16 00:46:48;;;;;;;3.33;1.70;;;;;;;;;;2131476;27;20047;-48
2022/05/16 00:47:49;;;;;;;3.45;1.50;;;;;;;;;;2131315;27;20039;-47
2022/05/16 00:48:51;;;;;;;2.30;1.30;;;;;;;;;;2131471;27;20091;-48
2022/05/16 00:49:53;;;;;;;2.53;1.48;;;;;;;;;;2131401;27;20130;-47
2022/05/16 00:50:54;;;;;;;2.55;1.30;;;;;;;;;;2131409;27;20122;-47
2022/05/16 00:51:59;;;;;;;1.70;1.20;;;;;;;;;;2131476;27;20227;-47
2022/05/16 00:53:00;;;;;;;5.50;1.77;;;;;;;;;;2131230;27;20038;-46
2022/05/16 00:54:05;;;;;;;2.05;1.52;;;;;;;;;;2130402;27;20520;-47
2022/05/16 00:55:09;;;;;;;3.00;1.20;;;;;;;;;;2131423;27;20117;-46
2022/05/16 00:56:10;;;;;;;2.33;1.50;;;;;;;;;;2131281;27;20516;-47
2022/05/16 00:57:14;;;;;;;2.95;1.40;;;;;;;;;;2131193;27;20047;-47
2022/05/16 00:58:16;;;;;;;3.65;1.65;;;;;;;;;;2131263;27;20445;-47
2022/05/16 00:59:18;;;;;;;2.80;1.48;;;;;;;;;;2131208;27;20094;-47
2022/05/16 01:00:20;;;;;;;4.40;1.83;;;;;;;;;;2131469;27;20074;-46
2022/05/16 01:05:23;;;;;;;3.55;1.45;;;;;;;;;;2131406;27;20046;-46
2022/05/16 01:06:24;;;;;;;4.53;1.67;;;;;;;;;;2131204;27;20039;-46
2022/05/16 01:07:26;;;;;;;3.50;1.30;;;;;;;;;;2131441;27;20517;-46
2022/05/16 01:08:28;;;;;;;4.50;1.77;;;;;;;;;;2131217;27;20130;-46
2022/05/16 01:09:29;;;;;;;2.75;1.70;;;;;;;;;;2131261;27;20053;-46
2022/05/16 01:10:30;;;;;;;3.25;1.52;;;;;;;;;;2131275;27;20049;-47
2022/05/16 01:11:32;;;;;;;4.03;1.60;;;;;;;;;;2131048;27;20074;-46
2022/05/16 01:12:33;;;;;;;;;;;;;;;;;;2131699;27;20142;-48
2022/05/16 01:13:34;;;;;;;4.05;1.58;;;;;;;;;;2131203;27;19919;-47
2022/05/16 01:14:43;;;;;;;2.45;1.33;;;;;;;;;;2131148;27;20545;-47
2022/05/16 01:15:45;;;;;;;3.45;1.50;;;;;;;;;;2131345;27;20122;-46
2022/05/16 01:16:46;;;;;;;4.82;1.75;;;;;;;;;;2131274;27;20054;-46
2022/05/16 01:17:47;;;;;;;1.88;1.40;;;;;;;;;;2131173;27;20129;-47
2022/05/16 01:18:48;;;;;;;5.32;1.60;;;;;;;;;;2131066;27;20129;-46
2022/05/16 01:19:50;;;;;;;2.53;1.67;;;;;;;;;;2131138;27;20046;-46
2022/05/16 01:20:57;;;;;;;4.70;2.15;;;;;;;;;;2131158;27;20047;-46
2022/05/16 01:21:59;;;;;;;3.92;1.77;;;;;;;;;;2131156;27;20041;-48
2022/05/16 01:23:01;;;;;;;3.38;1.75;;;;;;;;;;2131174;27;20129;-46
2022/05/16 01:24:05;;;;;;;3.63;1.60;;;;;;;;;;2131147;27;20121;-46
2022/05/16 01:25:07;;;;;;;4.03;1.85;;;;;;;;;;2131352;27;20159;-48
2022/05/16 01:26:11;;;;;;;5.45;2.30;;;;;;;;;;2131196;27;20100;-47
2022/05/16 01:27:12;;;;;;;3.80;1.90;;;;;;;;;;2131276;27;20129;-46
2022/05/16 01:28:16;;;;;;;3.37;1.67;;;;;;;;;;2131224;27;20455;-47
2022/05/16 01:29:19;;;;;;;3.45;1.80;;;;;;;;;;2131171;27;20586;-58
2022/05/16 01:30:22;;;;;;;3.80;1.70;;;;;;;;;;2130999;27;20141;-59
2022/05/16 01:31:23;;;;;;;4.70;1.80;;;;;;;;;;2131102;27;20091;-59
2022/05/16 01:32:24;;;;;;;2.78;1.60;;;;;;;;;;2131075;27;20582;-59
2022/05/16 01:33:25;;;;;;;3.50;2.00;;;;;;;;;;2131296;27;20046;-59
2022/05/16 01:34:27;;;;;;;4.30;1.77;;;;;;;;;;2131149;27;20047;-59
2022/05/16 01:35:28;;;;;;;3.63;2.30;;;;;;;;;;2131085;27;20050;-59
2022/05/16 01:36:29;;;;;;;;;;;;;;;;;;2131656;27;20047;-59
2022/05/16 01:38:47;;;;;;;6.43;1.77;;;;;;;;;;2130248;27;20053;-59
2022/05/16 01:39:48;;;;;;;3.25;1.90;;;;;;;;;;2131059;27;20475;-59
2022/05/16 01:40:50;;;;;;;2.60;1.73;;;;;;;;;;2131178;27;20095;-59
2022/05/16 01:41:51;;;;;;;4.00;1.58;;;;;;;;;;2131163;27;20042;-59
2022/05/16 01:42:52;;;;;;;4.97;1.77;;;;;;;;;;2131103;27;20474;-59
2022/05/16 01:43:55;;;;;;;4.03;1.70;;;;;;;;;;2131188;27;20152;-58
2022/05/16 01:44:56;;;;;;;3.22;2.17;;;;;;;;;;2130759;27;20278;-59
2022/05/16 01:45:57;;;;;;;3.00;1.90;;;;;;;;;;2131044;27;20046;-59
2022/05/16 01:46:59;;;;;;;5.93;2.35;;;;;;;;;;2130980;27;20376;-59
2022/05/16 01:48:00;;;;;;;4.33;2.33;;;;;;;;;;2131356;27;20119;-59
2022/05/16 01:49:01;;;;;;;4.13;2.33;;;;;;;;;;2130944;27;20362;-59
2022/05/16 01:50:02;;;;;;;6.45;2.05;;;;;;;;;;2131210;27;20137;-59
2022/05/16 01:51:04;;;;;;;4.60;1.77;;;;;;;;;;2130928;27;20357;-59
2022/05/16 01:52:06;;;;;;;4.22;1.83;;;;;;;;;;2130915;27;20507;-59
2022/05/16 01:53:07;;;;;;;5.68;2.00;;;;;;;;;;2131055;27;20121;-59
2022/05/16 01:54:09;;;;;;;3.88;1.80;;;;;;;;;;2131090;27;20042;-59
2022/05/16 01:55:11;;;;;;;;;;;;;;;;;;2131559;27;20130;-59
2022/05/16 01:56:13;;;;;;;3.05;1.92;;;;;;;;;;2131085;27;20013;-58
2022/05/16 01:57:13;;;;;;;2.92;1.48;;;;;;;;;;2130979;27;20055;-59
2022/05/16 01:58:15;;;;;;;3.77;2.03;;;;;;;;;;2131013;27;20047;-59
2022/05/16 01:59:16;;;;;;;4.80;2.08;;;;;;;;;;2131004;27;20070;-59
2022/05/16 02:00:18;;;;;;;3.72;2.00;;;;;;;;;;2130953;27;20510;-59
2022/05/16 02:01:20;;;;;;;5.72;2.10;;;;;;;;;;2130935;27;20043;-59
2022/05/16 02:02:22;;;;;;;4.13;2.00;;;;;;;;;;2130854;27;20058;-59
2022/05/16 02:03:23;;;;;;;3.88;2.00;;;;;;;;;;2131079;27;20074;-59
2022/05/16 02:04:24;;;;;;;3.50;1.93;;;;;;;;;;2130918;27;20471;-59
2022/05/16 02:05:25;;;;;;;4.70;2.03;;;;;;;;;;2132025;27;20047;-59
2022/05/16 02:06:26;;;;;;;3.90;2.05;;;;;;;;;;2132483;27;20074;-59
2022/05/16 02:07:27;;;;;;;3.42;1.63;;;;;;;;;;2132475;27;20443;-59
2022/05/16 02:08:29;;;;;;;5.40;1.90;;;;;;;;;;2132547;27;20050;-59
2022/05/16 02:09:30;;;;;;;3.53;2.25;;;;;;;;;;2132300;27;20445;-59
2022/05/16 02:10:33;;;;;;;4.75;2.05;;;;;;;;;;2132400;27;20510;-59
2022/05/16 02:11:34;;;;;;;4.63;2.45;;;;;;;;;;2132438;27;20134;-59
2022/05/16 02:12:35;;;;;;;3.85;2.10;;;;;;;;;;2132599;27;20130;-58
2022/05/16 02:13:37;;;;;;;4.07;2.65;;;;;;;;;;2132397;27;20134;-58
2022/05/16 02:14:38;;;;;;;3.33;1.70;;;;;;;;;;2132533;27;20125;-58
2022/05/16 02:15:41;;;;;;;4.23;2.40;;;;;;;;;;2132480;27;20051;-58
2022/05/16 02:16:42;;;;;;;2.97;2.03;;;;;;;;;;2132340;27;20685;-58
2022/05/16 02:17:43;;;;;;;3.63;2.00;;;;;;;;;;2132420;27;20057;-58
2022/05/16 02:18:45;;;;;;;5.00;2.10;;;;;;;;;;2132254;27;20121;-59
2022/05/16 02:19:45;;;;;;;5.22;2.35;;;;;;;;;;2132482;27;20137;-58
2022/05/16 02:20:47;;;;;;;4.17;2.20;;;;;;;;;;2132340;27;20043;-58
2022/05/16 02:24:39;;;;;;;4.18;2.30;;;;;;;;;;2105592;28;20048;-58
2022/05/16 02:25:41;;;;;;;3.13;1.98;;;;;;;;;;2131210;27;20134;-58
2022/05/16 02:26:46;;;;;;;4.18;2.35;;;;;;;;;;2132341;27;20129;-58
2022/05/16 02:27:48;;;;;;;5.78;1.98;;;;;;;;;;2132546;27;20129;-58
2022/05/16 02:28:49;;;;;;;3.90;2.38;;;;;;;;;;2132304;27;20043;-58
2022/05/16 02:29:50;;;;;;;3.60;1.77;;;;;;;;;;2132282;27;20483;-58
2022/05/16 02:30:52;;;;;;;4.38;2.35;;;;;;;;;;2132348;27;20059;-58
2022/05/16 02:31:53;;;;;;;;;;;;;;;;;;2132740;27;20042;-58
2022/05/16 02:32:55;;;;;;;3.90;2.35;;;;;;;;;;2132324;27;19983;-58
2022/05/16 02:33:56;;;;;;;4.65;2.03;;;;;;;;;;2132412;27;20340;-58
2022/05/16 02:34:58;;;;;;;5.10;2.87;;;;;;;;;;2132488;27;20502;-46
2022/05/16 02:35:58;;;;;;;4.45;2.67;;;;;;;;;;2132336;27;20043;-46
2022/05/16 02:37:00;;;;;;;3.63;2.07;;;;;;;;;;2132313;27;20115;-46
2022/05/16 02:38:01;;;;;;;5.30;2.22;;;;;;;;;;2132421;27;20280;-46
2022/05/16 02:39:03;;;;;;;3.60;2.30;;;;;;;;;;2132508;27;20039;-58
2022/05/16 02:40:05;;;;;;;2.95;2.08;;;;;;;;;;2132376;27;20043;-58
2022/05/16 02:41:07;;;;;;;5.53;2.25;;;;;;;;;;2132277;27;20535;-58
2022/05/16 02:42:08;;;;;;;4.07;2.63;;;;;;;;;;2132250;27;20396;-58
2022/05/16 02:43:09;;;;;;;3.42;1.90;;;;;;;;;;2132178;27;20126;-58
2022/05/16 02:44:11;;;;;;;3.03;1.85;;;;;;;;;;2132293;27;20099;-58
2022/05/16 02:45:12;;;;;;;5.68;2.35;;;;;;;;;;2132271;27;20074;-58
2022/05/16 02:46:13;;;;;;;3.92;1.90;;;;;;;;;;2132216;27;20380;-58
2022/05/16 02:47:15;;;;;;;5.53;2.00;;;;;;;;;;2132297;27;20112;-58
2022/05/16 02:48:17;;;;;;;5.28;2.05;;;;;;;;;;2132267;27;20131;-58
2022/05/16 02:49:17;;;;;;;3.70;2.30;;;;;;;;;;2132172;27;20138;-58
2022/05/16 02:50:19;;;;;;;4.50;1.97;;;;;;;;;;2132038;27;20514;-58
2022/05/16 02:51:20;;;;;;;3.58;2.20;;;;;;;;;;2132150;27;20046;-58
2022/05/16 02:52:21;;;;;;;3.90;1.92;;;;;;;;;;2132493;27;20126;-58
2022/05/16 02:53:22;;;;;;;3.95;2.47;;;;;;;;;;2132198;27;20555;-58
2022/05/16 02:54:23;;;;;;;3.47;2.00;;;;;;;;;;2132057;27;20053;-58
2022/05/16 02:55:24;;;;;;;5.32;2.03;;;;;;;;;;2132294;27;20078;-59
2022/05/16 02:56:26;;;;;;;4.22;1.92;;;;;;;;;;2132537;27;20508;-58
2022/05/16 02:57:27;;;;;;;4.78;2.70;;;;;;;;;;2132131;27;20043;-59
2022/05/16 02:58:28;;;;;;;5.87;2.03;;;;;;;;;;2132060;27;20050;-59
2022/05/16 02:59:32;;;;;;;5.10;2.00;;;;;;;;;;2132145;27;20043;-59
2022/05/16 03:00:34;;;;;;;4.25;2.05;;;;;;;;;;2132006;27;20133;-59
2022/05/16 03:01:35;;;;;;;6.40;2.22;;;;;;;;;;2132110;27;20039;-59
2022/05/16 03:02:36;;;;;;;4.47;2.20;;;;;;;;;;2132064;27;20050;-59
2022/05/16 03:03:37;;;;;;;5.07;1.83;;;;;;;;;;2132097;27;20043;-58
2022/05/16 03:04:39;;;;;;;4.40;2.50;;;;;;;;;;2132380;27;20156;-59
2022/05/16 03:05:40;;;;;;;4.20;2.42;;;;;;;;;;2132065;27;20069;-58
2022/05/16 03:06:42;;;;;;;4.85;1.90;;;;;;;;;;2132209;27;20050;-59
2022/05/16 03:07:43;;;;;;;4.40;2.20;;;;;;;;;;2132110;27;20078;-59
2022/05/16 03:08:44;;;;;;;6.03;2.25;;;;;;;;;;2132074;27;20051;-58
2022/05/16 03:09:47;;;;;;;7.25;2.65;;;;;;;;;;2132133;27;20099;-58
2022/05/16 03:10:48;;;;;;;7.70;2.63;;;;;;;;;;2132009;27;20414;-58
2022/05/16 03:11:49;;;;;;;4.03;1.80;;;;;;;;;;2132062;27;20175;-58
2022/05/16 03:12:51;;;;;;;4.15;2.10;;;;;;;;;;2132137;27;20122;-58
2022/05/16 03:13:52;;;;;;;4.00;2.25;;;;;;;;;;2131994;27;20050;-56
2022/05/16 03:14:53;;;;;;;4.88;2.40;;;;;;;;;;2132327;27;20066;-58
2022/05/16 03:15:54;;;;;;;3.95;2.58;;;;;;;;;;2132297;27;20049;-47
2022/05/16 03:16:55;;;;;;;6.72;2.80;;;;;;;;;;2131103;27;20039;-46
2022/05/16 03:17:57;;;;;;;6.40;3.22;;;;;;;;;;2132119;27;20387;-46
2022/05/16 03:18:58;;;;;;;4.65;3.33;;;;;;;;;;2131740;27;20478;-46
2022/05/16 03:20:00;;;;;;;5.73;2.90;;;;;;;;;;2132132;27;20107;-48
2022/05/16 03:21:04;;;;;;;4.63;3.30;;;;;;;;;;2131879;27;20503;-46
2022/05/16 03:22:06;;;;;;;7.67;3.27;;;;;;;;;;2132103;27;20058;-47
2022/05/16 03:23:07;;;;;;;4.80;3.45;;;;;;;;;;2132027;27;20125;-47
2022/05/16 03:24:08;;;;;;;6.03;2.70;;;;;;;;;;2131948;27;20488;-47
2022/05/16 03:25:10;;;;;;;6.43;2.92;;;;;;;;;;2131992;27;20081;-46
2022/05/16 03:26:11;;;;;;;4.85;2.42;;;;;;;;;;2131881;27;20096;-48
2022/05/16 03:27:13;;;;;;;4.78;2.78;;;;;;;;;;2131968;27;20170;-47
2022/05/16 03:28:14;;;;;;;3.83;2.22;;;;;;;;;;2131913;27;20045;-46
2022/05/16 03:29:16;;;;;;;4.25;2.55;;;;;;;;;;2131966;27;20133;-47
2022/05/16 03:30:17;;;;;;;5.30;3.50;;;;;;;;;;2131853;27;20057;-47
2022/05/16 03:31:18;;;;;;;6.65;3.47;;;;;;;;;;2132085;27;20051;-46
2022/05/16 03:32:20;;;;;;;7.68;3.05;;;;;;;;;;2131822;27;20491;-46
2022/05/16 03:33:21;;;;;;;7.68;2.90;;;;;;;;;;2132091;27;20070;-47
2022/05/16 03:34:22;;;;;;;6.57;2.53;;;;;;;;;;2132023;27;20114;-46
2022/05/16 03:35:23;;;;;;;4.07;2.00;;;;;;;;;;2131957;27;20358;-46
2022/05/16 03:36:25;;;;;;;2.95;1.67;;;;;;;;;;2131957;27;20081;-47
2022/05/16 03:37:26;;;;;;;4.95;2.05;;;;;;;;;;2132043;27;20047;-47
2022/05/16 03:41:07;;;;;;;4.97;1.92;;;;;;;;;;2131765;27;20597;-47
2022/05/16 03:42:08;;;;;;;5.45;2.20;;;;;;;;;;2131771;27;20438;-47
2022/05/16 03:43:10;;;;;;;3.67;2.10;;;;;;;;;;2131750;27;20094;-46
2022/05/16 03:44:11;;;;;;;5.22;2.35;;;;;;;;;;2131732;27;20050;-47
2022/05/16 03:45:13;;;;;;;4.50;2.80;;;;;;;;;;2131858;27;20138;-47
2022/05/16 03:46:14;;;;;;;3.38;2.00;;;;;;;;;;2131688;27;20043;-46
2022/05/16 03:47:15;;;;;;;3.65;2.08;;;;;;;;;;2131805;27;20078;-46
2022/05/16 03:48:16;;;;;;;3.08;2.28;;;;;;;;;;2131861;27;20099;-46
2022/05/16 03:49:18;;;;;;;4.18;2.05;;;;;;;;;;2131866;27;20129;-46
2022/05/16 03:50:19;;;;;;;2.83;1.60;;;;;;;;;;2131722;27;20483;-47
2022/05/16 03:51:20;;;;;;;3.42;1.90;;;;;;;;;;2131865;27;20059;-47
2022/05/16 03:52:21;;;;;;;3.03;1.80;;;;;;;;;;2131712;27;20413;-47
2022/05/16 03:53:22;;;;;;;3.60;1.85;;;;;;;;;;2131863;27;20142;-46
2022/05/16 03:54:23;;;;;;;4.30;2.28;;;;;;;;;;2131740;27;20050;-46
2022/05/16 03:55:24;;;;;;;3.27;1.67;;;;;;;;;;2132040;27;20043;-59
2022/05/16 03:56:26;;;;;;;3.25;2.00;;;;;;;;;;2131710;27;20445;-59
2022/05/16 03:57:27;;;;;;;;;;;;;;;;;;2132083;27;20090;-58
2022/05/16 03:58:29;;;;;;;5.28;2.35;;;;;;;;;;2131891;27;19979;-47
2022/05/16 03:59:30;;;;;;;4.57;2.20;;;;;;;;;;2131594;27;20049;-47
2022/05/16 04:00:31;;;;;;;3.55;2.00;;;;;;;;;;2131857;27;20042;-46
2022/05/16 04:01:32;;;;;;;3.15;1.98;;;;;;;;;;2131754;27;20510;-47
2022/05/16 04:02:33;;;;;;;3.53;2.13;;;;;;;;;;2131691;27;20550;-48
2022/05/16 04:03:35;;;;;;;2.87;1.97;;;;;;;;;;2131693;27;20070;-47
2022/05/16 04:04:36;;;;;;;5.13;2.10;;;;;;;;;;2131677;27;20674;-49
2022/05/16 04:05:38;;;;;;;3.50;2.13;;;;;;;;;;2131776;27;20074;-47
2022/05/16 04:06:39;;;;;;;3.10;2.10;;;;;;;;;;2131711;27;20077;-47
2022/05/16 04:07:40;;;;;;;5.20;2.17;;;;;;;;;;2132030;27;20061;-59
2022/05/16 04:08:42;;;;;;;3.67;2.17;;;;;;;;;;2131802;27;20289;-59
2022/05/16 04:09:43;;;;;;;3.67;2.00;;;;;;;;;;2132038;27;20130;-59
2022/05/16 04:10:44;;;;;;;3.42;2.03;;;;;;;;;;2131830;27;20483;-47
2022/05/16 04:11:45;;;;;;;3.27;1.73;;;;;;;;;;2131654;27;20043;-47
2022/05/16 04:12:46;;;;;;;4.15;2.28;;;;;;;;;;2131631;27;20505;-47
2022/05/16 04:13:48;;;;;;;3.30;1.65;;;;;;;;;;2131698;27;20347;-47
2022/05/16 04:14:49;;;;;;;3.05;1.70;;;;;;;;;;2131637;27;20129;-46
2022/05/16 04:15:50;;;;;;;5.47;1.50;;;;;;;;;;2131534;27;20082;-47
2022/05/16 04:16:51;;;;;;;2.33;1.60;;;;;;;;;;2131731;27;20077;-48
2022/05/16 04:17:53;;;;;;;3.20;1.88;;;;;;;;;;2131519;27;20067;-46
2022/05/16 04:18:54;;;;;;;1.95;1.20;;;;;;;;;;2131434;27;20117;-47
2022/05/16 04:19:55;;;;;;;2.97;1.60;;;;;;;;;;2131579;27;20121;-47
2022/05/16 04:20:57;;;;;;;3.40;1.77;;;;;;;;;;2131624;27;20052;-46
2022/05/16 04:21:58;;;;;;;;;;;;;;;;;;2132008;27;20142;-47
2022/05/16 04:22:59;;;;;;;3.00;1.75;;;;;;;;;;2131849;27;19923;-47
2022/05/16 04:24:01;;;;;;;3.35;1.60;;;;;;;;;;2131571;27;20706;-48
2022/05/16 04:25:01;;;;;;;;;;;;;;;;;;2132266;27;20053;-59
2022/05/16 04:26:02;;;;;;;2.58;1.48;;;;;;;;;;2131594;27;20364;-60
2022/05/16 04:27:04;;;;;;;3.80;1.63;;;;;;;;;;2131685;27;20035;-59
2022/05/16 04:28:05;;;;;;;7.53;1.70;;;;;;;;;;2131638;27;20114;-60
2022/05/16 04:29:07;;;;;;;2.72;1.75;;;;;;;;;;2131399;27;20517;-59
2022/05/16 04:30:08;;;;;;;3.58;1.60;;;;;;;;;;2131702;27;20061;-59
2022/05/16 04:31:10;;;;;;;2.35;1.50;;;;;;;;;;2131470;27;20148;-60
2022/05/16 04:32:11;;;;;;;2.80;1.27;;;;;;;;;;2131587;27;20127;-59
2022/05/16 04:33:12;;;;;;;2.88;1.40;;;;;;;;;;2131490;27;20051;-60
2022/05/16 04:34:13;;;;;;;2.05;1.08;;;;;;;;;;2131502;27;20129;-59
2022/05/16 04:35:15;;;;;;;9.13;1.52;;;;;;;;;;2131447;27;20475;-60
2022/05/16 04:36:16;;;;;;;3.60;1.42;;;;;;;;;;2131605;27;20078;-60
2022/05/16 04:37:17;;;;;;;2.27;1.37;;;;;;;;;;2131352;27;20042;-60
2022/05/16 04:38:18;;;;;;;4.70;2.03;;;;;;;;;;2131422;27;20905;-60
2022/05/16 04:39:19;;;;;;;2.00;1.37;;;;;;;;;;2131321;27;20058;-60
2022/05/16 04:40:20;;;;;;;3.60;1.42;;;;;;;;;;2131380;27;20536;-60
2022/05/16 04:42:41;;;;;;;4.40;1.88;;;;;;;;;;2131648;27;20546;-47
2022/05/16 04:43:42;;;;;;;4.40;2.00;;;;;;;;;;2131440;27;20042;-48
2022/05/16 04:44:44;;;;;;;4.03;1.92;;;;;;;;;;2131365;27;20049;-46
2022/05/16 04:45:45;;;;;;;2.88;2.10;;;;;;;;;;2131658;27;20137;-47
2022/05/16 04:46:46;;;;;;;4.80;2.38;;;;;;;;;;2131410;27;20164;-46
2022/05/16 04:47:49;;;;;;;6.53;2.22;;;;;;;;;;2131699;27;20141;-46
2022/05/16 04:48:50;;;;;;;4.85;2.45;;;;;;;;;;2131395;27;20091;-46
2022/05/16 04:49:51;;;;;;;9.93;3.25;;;;;;;;;;2131401;27;20046;-46
2022/05/16 04:50:52;;;;;;;5.05;2.60;;;;;;;;;;2131421;27;20065;-46
2022/05/16 04:51:54;;;;;;;6.57;3.43;;;;;;;;;;2131319;27;20046;-46
2022/05/16 04:52:55;;;;;;;8.73;2.95;;;;;;;;;;2131510;27;20125;-60
2022/05/16 04:53:56;;;;;;;6.93;3.03;;;;;;;;;;2131799;27;20038;-59
2022/05/16 04:54:57;;;;;;;5.75;2.50;;;;;;;;;;2131336;27;20146;-59
2022/05/16 04:55:58;;;;;;;7.45;2.58;;;;;;;;;;2131345;27;20138;-59
2022/05/16 04:56:59;;;;;;;4.18;1.92;;;;;;;;;;2131105;27;20039;-60
2022/05/16 04:58:00;;;;;;;3.45;2.38;;;;;;;;;;2131266;27;20129;-60
2022/05/16 04:59:01;;;;;;;6.03;2.33;;;;;;;;;;2131512;27;20039;-47
2022/05/16 05:00:04;;;;;;;6.13;1.73;;;;;;;;;;2131280;27;20502;-46
2022/05/16 05:01:05;;;;;;;3.25;1.50;;;;;;;;;;2131229;27;20053;-47
2022/05/16 05:02:07;;;;;;;2.47;1.40;;;;;;;;;;2131363;27;20046;-46
2022/05/16 05:03:08;;;;;;;2.37;1.37;;;;;;;;;;2131393;27;20038;-47
2022/05/16 05:04:09;;;;;;;3.83;1.45;;;;;;;;;;2131186;27;20552;-46
2022/05/16 05:05:11;;;;;;;2.53;1.47;;;;;;;;;;2131361;27;20171;-47
2022/05/16 05:06:11;;;;;;;;;;;;;;;;;;2132018;27;20334;-46
2022/05/16 05:07:13;;;;;;;2.42;1.60;;;;;;;;;;2131183;27;20003;-47
2022/05/16 05:08:14;;;;;;;2.88;1.30;;;;;;;;;;2131371;27;20050;-48
2022/05/16 05:09:20;;;;;;;3.53;1.70;;;;;;;;;;2131369;27;20473;-60
2022/05/16 05:14:32;;;;;;;2.15;1.63;;;;;;;;;;2131118;27;20562;-49
2022/05/16 05:15:36;;;;;;;2.42;1.30;;;;;;;;;;2131455;27;20050;-46
2022/05/16 05:16:38;;;;;;;4.47;1.20;;;;;;;;;;2131294;27;20098;-47
2022/05/16 05:17:40;;;;;;;2.55;1.38;;;;;;;;;;2131408;27;20122;-47
2022/05/16 05:18:42;;;;;;;1.80;1.02;;;;;;;;;;2130837;27;20499;-47
2022/05/16 05:19:43;;;;;;;4.28;1.23;;;;;;;;;;2131575;27;20126;-48
2022/05/16 05:20:45;;;;;;;2.03;1.00;;;;;;;;;;2131389;27;20122;-47
2022/05/16 05:21:46;;;;;;;1.73;1.02;;;;;;;;;;2131142;27;20137;-47
2022/05/16 05:22:47;;;;;;;1.90;0.93;;;;;;;;;;2131232;27;20125;-46
2022/05/16 05:23:49;;;;;;;1.92;0.90;;;;;;;;;;2131401;27;20042;-46
2022/05/16 05:24:50;;;;;;;2.67;0.80;;;;;;;;;;2131313;27;20078;-47
2022/05/16 05:27:11;;;;;;;1.63;1.00;;;;;;;;;;2131187;27;20134;-46
2022/05/16 05:28:12;;;;;;;2.88;0.98;;;;;;;;;;2131092;27;20136;-48
2022/05/16 05:29:13;;;;;;;1.85;1.20;;;;;;;;;;2131033;27;20051;-47
2022/05/16 05:30:15;;;;;;;3.85;1.20;;;;;;;;;;2131121;27;20558;-47
2022/05/16 05:31:18;;;;;;;1.55;0.95;;;;;;;;;;2131469;27;20142;-60
2022/05/16 05:32:20;;;;;;;2.53;1.02;;;;;;;;;;2131148;27;20038;-60
2022/05/16 05:33:21;;;;;;;1.33;1.10;;;;;;;;;;2131310;27;20545;-60
2022/05/16 05:34:22;;;;;;;2.50;0.85;;;;;;;;;;2130957;27;20483;-60
2022/05/16 05:35:23;;;;;;;1.73;1.00;;;;;;;;;;2131320;27;20506;-47
2022/05/16 05:36:25;;;;;;;2.08;1.10;;;;;;;;;;2131068;27;20351;-46
2022/05/16 05:37:26;;;;;;;1.60;0.80;;;;;;;;;;2131312;27;20137;-60
2022/05/16 05:38:27;;;;;;;3.20;0.90;;;;;;;;;;2130930;27;20046;-60
2022/05/16 05:39:31;;;;;;;1.55;0.80;;;;;;;;;;2130818;27;20050;-60
2022/05/16 05:40:32;;;;;;;1.80;0.90;;;;;;;;;;2130690;27;20046;-60
2022/05/16 05:41:33;;;;;;;2.10;1.17;;;;;;;;;;2131290;27;20046;-60
2022/05/16 05:42:34;;;;;;;3.53;1.10;;;;;;;;;;2131070;27;20042;-60
2022/05/16 05:43:36;;;;;;;1.23;0.73;;;;;;;;;;2130926;27;20042;-60
2022/05/16 05:44:37;;;;;;;2.17;1.02;;;;;;;;;;2131153;27;20054;-60
2022/05/16 05:45:38;;;;;;;2.37;0.97;;;;;;;;;;2130993;27;20042;-60
2022/05/16 05:46:40;;;;;;;3.25;0.90;;;;;;;;;;2131062;27;20062;-60
2022/05/16 05:47:41;;;;;;;;;;;;;;;;;;2131393;27;20050;-60
2022/05/16 05:48:42;;;;;;;1.38;0.80;;;;;;;;;;2131093;27;19953;-60
2022/05/16 05:49:44;;;;;;;3.73;0.70;;;;;;;;;;2130984;27;20046;-60
2022/05/16 05:50:45;;;;;;;1.35;0.70;;;;;;;;;;2131141;27;20051;-60
2022/05/16 05:51:47;;;;;;;3.63;1.03;;;;;;;;;;2131022;27;20051;-60
2022/05/16 05:52:47;;;;;;;2.33;1.00;;;;;;;;;;2130933;27;20051;-60
2022/05/16 05:53:49;;;;;;;3.40;0.80;;;;;;;;;;2131009;27;20448;-60
2022/05/16 05:54:49;;;;;;;1.23;0.60;;;;;;;;;;2130978;27;20093;-60
2022/05/16 05:55:51;;;;;;;2.53;0.80;;;;;;;;;;2130987;27;20042;-60
2022/05/16 05:56:52;;;;;;;1.73;1.00;;;;;;;;;;2130917;27;20117;-60
2022/05/16 05:57:53;;;;;;;2.67;0.80;;;;;;;;;;2130916;27;20445;-60
2022/05/16 05:58:55;;;;;;;1.67;1.13;;;;;;;;;;2130793;27;20125;-60
2022/05/16 05:59:57;;;;;;;2.13;0.93;;;;;;;;;;2130942;27;20502;-60
2022/05/16 06:00:58;;;;;;;2.97;0.90;;;;;;;;;;2131111;27;20045;-60
2022/05/16 06:02:00;;;;;;;8.52;1.20;;;;;;;;;;2131088;27;20072;-60
2022/05/16 06:03:01;;;;;;;1.98;0.90;;;;;;;;;;2130935;27;20046;-60
2022/05/16 06:04:02;;;;;;;4.63;1.35;;;;;;;;;;2130995;27;20179;-60
2022/05/16 06:05:04;;;;;;;3.03;1.00;;;;;;;;;;2131027;27;20125;-60
2022/05/16 06:06:05;;;;;;;1.33;0.75;;;;;;;;;;2131108;27;20110;-60
2022/05/16 06:07:06;;;;;;;2.20;1.03;;;;;;;;;;2131066;27;20046;-60
2022/05/16 06:08:07;;;;;;;2.42;0.65;;;;;;;;;;2130835;27;20129;-60
2022/05/16 06:09:08;;;;;;;2.67;1.17;;;;;;;;;;2131034;27;20051;-60
2022/05/16 06:10:10;;;;;;;1.05;0.60;;;;;;;;;;2130956;27;20125;-60
2022/05/16 06:11:11;;;;;;;1.45;0.70;;;;;;;;;;2130909;27;20102;-60
2022/05/16 06:12:12;;;;;;;1.33;0.80;;;;;;;;;;2131118;27;20125;-48
2022/05/16 06:13:13;;;;;;;2.00;0.97;;;;;;;;;;2131133;27;20050;-46
2022/05/16 06:14:14;;;;;;;2.03;0.95;;;;;;;;;;2130805;27;20057;-49
2022/05/16 06:15:16;;;;;;;2.43;0.80;;;;;;;;;;2130855;27;20043;-47
2022/05/16 06:16:17;;;;;;;1.10;0.57;;;;;;;;;;2130929;27;20283;-47
2022/05/16 06:17:20;;;;;;;2.17;0.60;;;;;;;;;;2130892;27;20049;-47
2022/05/16 06:18:22;;;;;;;1.13;0.60;;;;;;;;;;2130786;27;20134;-60
2022/05/16 06:19:23;;;;;;;2.40;0.70;;;;;;;;;;2130709;27;20133;-61
2022/05/16 06:20:24;;;;;;;0.90;0.60;;;;;;;;;;2131133;27;20047;-46
2022/05/16 06:21:25;;;;;;;1.27;0.57;;;;;;;;;;2131074;27;20192;-47
2022/05/16 06:22:26;;;;;;;0.93;0.52;;;;;;;;;;2131074;27;20505;-60
2022/05/16 06:23:27;;;;;;;1.10;0.67;;;;;;;;;;2130856;27;20051;-61
2022/05/16 06:25:48;;;;;;;5.70;1.67;;;;;;;;;;2130779;27;20453;-60
2022/05/16 06:26:49;;;;;;;1.52;0.57;;;;;;;;;;2130877;27;20125;-61
2022/05/16 06:27:51;;;;;;;2.50;0.73;;;;;;;;;;2131074;27;20046;-61
2022/05/16 06:28:52;;;;;;;1.25;0.70;;;;;;;;;;2131591;27;20071;-61